Time;durP1;ratioP1;P1;durP2;ratioP2;P2;SDS_P1;SDS_P2;PMS_P1;PMS_P2;Temp;Humidity;BMP_temperature;BMP_pressure;BME280_temperature;BME280_humidity;BME280_pressure;Samples;Min_cycle;Max_cycle;Signal;HPM_P1;HPM_P2
2023/05/05 00:04:58;;;;;;;17.13;16.13;;;17.90;1.00;;;;;;2614972;54;20134;-81
2023/05/05 00:10:47;;;;;;;17.90;17.00;;;17.80;1.00;;;;;;2615876;54;20135;-81
2023/05/05 00:16:35;;;;;;;18.53;17.63;;;17.80;1.00;;;;;;2616844;54;20427;-81
2023/05/05 00:22:23;;;;;;;17.63;16.83;;;17.70;1.00;;;;;;2615175;54;20135;-81
2023/05/05 00:25:08;;;;;;;18.27;17.17;;;17.80;1.00;;;;;;2615611;54;20408;-80
2023/05/05 00:27:33;;;;;;;17.10;16.30;;;17.80;1.00;;;;;;2617404;54;20142;-80
2023/05/05 00:33:22;;;;;;;17.43;16.63;;;17.80;1.00;;;;;;2617611;39;20638;-80
2023/05/05 00:39:10;;;;;;;18.17;17.07;;;17.50;1.00;;;;;;2618609;54;20390;-80
2023/05/05 00:44:58;;;;;;;18.07;17.07;;;17.50;1.00;;;;;;2618743;54;20134;-79
2023/05/05 00:50:45;;;;;;;17.00;16.10;;;17.50;1.00;;;;;;2620145;54;20186;-81
2023/05/05 00:56:34;;;;;;;17.77;16.70;;;17.40;1.00;;;;;;2620981;54;20481;-81
2023/05/05 01:02:22;;;;;;;18.63;17.67;;;17.20;1.00;;;;;;2618913;54;21022;-82
2023/05/05 01:08:17;;;;;;;18.30;17.27;;;17.10;1.00;;;;;;2618447;54;20259;-81
2023/05/05 01:14:29;;;;;;;18.50;17.10;;;17.00;1.00;;;;;;2623400;54;20452;-83
2023/05/05 01:33:07;;;;;;;16.80;16.00;;;17.30;1.00;;;;;;2619947;54;20929;-80
2023/05/05 01:38:58;;;;;;;18.37;17.37;;;17.20;1.00;;;;;;2619674;54;20384;-82
2023/05/05 01:44:47;;;;;;;18.57;17.57;;;17.10;1.00;;;;;;2618748;54;20427;-82
2023/05/05 01:50:36;;;;;;;17.30;16.30;;;17.00;1.00;;;;;;2619142;54;20419;-82
2023/05/05 01:56:25;;;;;;;17.33;16.53;;;17.10;1.00;;;;;;2619424;54;20378;-82
2023/05/05 02:02:15;;;;;;;18.10;17.10;;;17.10;3.90;;;;;;2615215;54;20391;-81
2023/05/05 02:08:04;;;;;;;18.43;17.10;;;17.00;9.50;;;;;;2616896;54;20400;-83
2023/05/05 02:13:54;;;;;;;18.73;17.50;;;17.00;13.40;;;;;;2620396;54;20386;-81
2023/05/05 02:19:44;;;;;;;18.67;17.30;;;16.90;19.30;;;;;;2619927;54;20407;-83
2023/05/05 02:29:36;;;;;;;18.87;17.63;;;16.60;33.90;;;;;;2615800;54;20438;-82
2023/05/05 02:35:30;;;;;;;17.87;16.80;;;16.40;48.30;;;;;;2613925;54;20442;-83
2023/05/05 02:41:19;;;;;;;19.97;18.27;;;16.30;55.50;;;;;;2613772;54;20937;-81
2023/05/05 02:47:08;;;;;;;18.37;17.07;;;16.10;73.70;;;;;;2615254;54;20375;-82
2023/05/05 02:52:58;;;;;;;20.10;18.47;;;16.50;88.70;;;;;;2619480;54;20411;-83
2023/05/05 02:58:53;;;;;;;20.67;18.80;;;16.80;85.00;;;;;;2619504;54;20423;-82
2023/05/05 03:04:47;;;;;;;18.53;17.23;;;16.90;87.80;;;;;;2617372;54;20439;-80
2023/05/05 03:16:55;;;;;;;19.77;18.30;;;16.90;91.90;;;;;;2612943;54;20595;-79
2023/05/05 03:22:43;;;;;;;18.90;17.30;;;17.00;96.00;;;;;;2613297;46;20798;-81
2023/05/05 03:31:53;;;;;;;22.67;20.77;;;16.70;99.90;;;;;;2612806;31;20894;-81
2023/05/05 03:37:41;;;;;;;21.27;19.30;;;16.70;99.90;;;;;;2611913;54;20135;-81
2023/05/05 03:43:29;;;;;;;22.27;20.17;;;16.50;99.90;;;;;;2612457;54;20157;-82
2023/05/05 03:49:17;;;;;;;21.33;19.50;;;16.30;99.90;;;;;;2616202;54;20162;-80
2023/05/05 03:55:05;;;;;;;20.07;18.47;;;15.90;99.90;;;;;;2616894;54;20142;-81
2023/05/05 04:00:54;;;;;;;21.97;19.97;;;15.70;99.90;;;;;;2617136;54;20535;-81
2023/05/05 04:06:42;;;;;;;23.20;20.90;;;15.60;99.90;;;;;;2615673;54;20383;-82
2023/05/05 04:12:31;;;;;;;20.80;18.67;;;15.40;99.90;;;;;;2615124;54;20182;-81
2023/05/05 04:18:19;;;;;;;21.77;19.90;;;15.30;99.90;;;;;;2613223;54;21145;-81
2023/05/05 04:24:07;;;;;;;21.17;19.17;;;15.00;99.90;;;;;;2611898;54;20130;-83
2023/05/05 04:27:25;;;;;;;19.97;18.30;;;15.00;99.90;;;;;;2613179;54;21103;-82
2023/05/05 04:29:51;;;;;;;22.30;20.27;;;15.00;99.90;;;;;;2613228;54;20193;-81
2023/05/05 04:35:38;;;;;;;21.40;19.37;;;15.00;99.90;;;;;;2613337;54;20399;-81
2023/05/05 04:41:26;;;;;;;23.10;20.80;;;14.90;99.90;;;;;;2614935;54;20672;-81
2023/05/05 04:47:14;;;;;;;22.13;20.13;;;14.80;99.90;;;;;;2614369;54;20180;-81
2023/05/05 04:53:02;;;;;;;24.43;20.00;;;15.00;99.90;;;;;;2612632;54;20142;-81
2023/05/05 04:58:50;;;;;;;21.17;19.10;;;15.30;99.90;;;;;;2615658;54;20222;-81
2023/05/05 05:04:38;;;;;;;20.53;18.53;;;15.40;99.90;;;;;;2612774;39;20782;-81
2023/05/05 05:10:27;;;;;;;20.90;19.00;;;15.60;99.90;;;;;;2613208;46;20169;-80
2023/05/05 05:16:14;;;;;;;21.57;19.47;;;15.70;99.90;;;;;;2609483;54;20503;-81
2023/05/05 05:22:02;;;;;;;20.60;18.80;;;15.90;99.90;;;;;;2610818;54;20134;-82
2023/05/05 05:31:51;;;;;;;21.13;19.13;;;16.00;99.90;;;;;;2613700;54;20431;-81
2023/05/05 05:37:38;;;;;;;24.40;20.47;;;16.40;99.90;;;;;;2614207;54;20455;-84
2023/05/05 05:43:26;;;;;;;22.10;20.13;;;16.40;99.90;;;;;;2617026;54;20166;-82
2023/05/05 05:49:15;;;;;;;23.47;21.53;;;16.60;99.90;;;;;;2616553;54;20151;-82
2023/05/05 05:55:03;;;;;;;26.07;23.63;;;16.80;99.90;;;;;;2616495;54;20372;-80
2023/05/05 06:00:51;;;;;;;24.33;22.00;;;17.20;99.90;;;;;;2614400;54;20382;-81
2023/05/05 06:06:39;;;;;;;23.63;21.63;;;17.60;99.90;;;;;;2618131;54;20200;-81
2023/05/05 06:12:26;;;;;;;24.27;22.17;;;17.90;99.90;;;;;;2615914;39;20537;-79
2023/05/05 06:18:14;;;;;;;26.27;24.07;;;18.10;99.90;;;;;;2615092;54;20131;-79
2023/05/05 06:24:02;;;;;;;23.40;20.70;;;18.00;97.70;;;;;;2614979;54;20114;-79
2023/05/05 06:27:23;;;;;;;23.50;21.40;;;18.30;89.70;;;;;;2615433;54;20420;-79
2023/05/05 06:29:49;;;;;;;23.37;20.97;;;18.70;64.90;;;;;;2615363;54;21019;-79
2023/05/05 06:35:37;;;;;;;23.07;21.17;;;19.20;56.70;;;;;;2613339;54;20159;-78
2023/05/05 06:41:25;;;;;;;21.57;19.87;;;19.20;45.60;;;;;;2615313;54;20178;-79
2023/05/05 06:47:12;;;;;;;21.90;19.93;;;21.00;21.30;;;;;;2611662;54;20500;-80
2023/05/05 06:53:02;;;;;;;23.53;21.30;;;19.40;30.70;;;;;;2612210;54;20491;-80
2023/05/05 06:58:49;;;;;;;20.73;18.83;;;19.90;25.80;;;;;;2605583;54;20407;-80
2023/05/05 07:04:37;;;;;;;19.40;17.70;;;19.30;27.20;;;;;;2609569;39;20321;-81
2023/05/05 07:10:27;;;;;;;20.23;18.63;;;19.50;17.30;;;;;;2610855;54;20110;-81
2023/05/05 07:16:14;;;;;;;19.40;18.00;;;20.60;9.70;;;;;;2607245;39;20832;-82
2023/05/05 07:22:03;;;;;;;20.00;18.70;;;20.10;9.60;;;;;;2607477;54;20162;-84
2023/05/05 07:31:54;;;;;;;19.37;17.50;;;20.20;9.30;;;;;;2610703;39;20602;-84
2023/05/05 07:37:43;;;;;;;19.07;17.77;;;19.90;16.80;;;;;;2608555;54;20415;-82
2023/05/05 07:43:30;;;;;;;19.90;18.50;;;20.30;12.00;;;;;;2603518;54;21506;-81
2023/05/05 07:49:18;;;;;;;18.73;17.30;;;20.30;12.70;;;;;;2609959;54;20135;-81
2023/05/05 07:55:06;;;;;;;17.30;16.03;;;20.60;9.40;;;;;;2610076;54;20398;-81
2023/05/05 08:00:55;;;;;;;16.40;15.40;;;19.90;3.60;;;;;;2611805;54;20386;-81
2023/05/05 08:06:43;;;;;;;17.43;16.33;;;20.90;4.20;;;;;;2614628;54;20134;-81
2023/05/05 08:12:30;;;;;;;19.70;18.10;;;20.30;5.90;;;;;;2610977;54;20150;-80
2023/05/05 08:18:18;;;;;;;19.67;18.03;;;20.20;8.40;;;;;;2614836;54;20175;-80
2023/05/05 08:24:08;;;;;;;18.53;17.43;;;21.20;9.30;;;;;;2612353;54;20161;-79
2023/05/05 08:27:25;;;;;;;18.33;16.87;;;21.00;8.70;;;;;;2611230;47;20419;-80
2023/05/05 08:29:51;;;;;;;17.27;16.13;;;20.80;6.70;;;;;;2611166;54;20423;-80
2023/05/05 08:35:39;;;;;;;17.93;16.50;;;20.90;5.50;;;;;;2612592;54;20178;-82
2023/05/05 08:41:27;;;;;;;17.77;16.30;;;21.50;3.40;;;;;;2608874;54;20137;-80
2023/05/05 08:47:15;;;;;;;19.30;18.00;;;21.50;1.70;;;;;;2609782;54;20383;-80
2023/05/05 08:53:14;;;;;;;22.40;20.53;;;21.30;4.50;;;;;;2610676;39;20608;-80
2023/05/05 08:59:03;;;;;;;21.67;20.03;;;21.50;7.10;;;;;;2612609;54;20427;-80
2023/05/05 09:04:51;;;;;;;20.70;19.30;;;21.90;5.10;;;;;;2606605;54;21064;-80
2023/05/05 09:10:40;;;;;;;19.10;17.90;;;21.90;2.90;;;;;;2605606;54;20400;-80
2023/05/05 09:16:30;;;;;;;21.73;20.00;;;22.50;1.00;;;;;;2609335;54;20419;-81
2023/05/05 09:32:19;;;;;;;20.67;19.27;;;22.70;1.00;;;;;;2611344;54;20395;-80
2023/05/05 09:38:11;;;;;;;20.13;18.83;;;23.40;1.00;;;;;;2611372;54;20135;-80
2023/05/05 09:43:59;;;;;;;20.20;18.80;;;23.00;1.00;;;;;;2610635;54;20383;-82
2023/05/05 10:03:01;;;;;;;19.40;18.20;;;22.00;1.00;;;;;;2611019;54;20407;-81
2023/05/05 10:15:25;;;;;;;19.97;18.57;;;23.90;1.00;;;;;;2618215;54;20396;-82
2023/05/05 10:21:15;;;;;;;19.83;18.50;;;22.60;1.00;;;;;;2614009;54;20391;-83
2023/05/05 10:27:27;;;;;;;19.30;18.10;;;21.70;1.00;;;;;;2608963;39;20773;-81
2023/05/05 10:30:02;;;;;;;21.03;19.40;;;22.00;1.00;;;;;;2611361;54;20436;-80
2023/05/05 10:32:47;;;;;;;19.90;18.20;;;22.10;1.00;;;;;;2613259;54;20933;-80
2023/05/05 10:38:37;;;;;;;18.20;16.90;;;23.30;1.00;;;;;;2613129;54;20431;-82
2023/05/05 10:44:26;;;;;;;17.40;16.40;;;22.40;1.00;;;;;;2611815;54;20367;-80
2023/05/05 10:56:39;;;;;;;18.57;17.47;;;23.30;1.00;;;;;;2616636;39;20769;-83
2023/05/05 11:02:28;;;;;;;19.80;18.50;;;23.80;1.00;;;;;;2615195;54;20435;-83
2023/05/05 11:08:26;;;;;;;20.50;19.20;;;23.50;1.00;;;;;;2615352;54;20379;-84
2023/05/05 11:11:32;;;;;;;19.37;18.17;;;22.80;1.00;;;;;;2614449;39;20793;-83
2023/05/05 11:14:23;;;;;;;19.83;18.50;;;23.10;1.00;;;;;;2612926;54;20965;-80
2023/05/05 11:20:10;;;;;;;21.30;19.67;;;22.70;1.00;;;;;;2612408;54;20395;-79
2023/05/05 11:25:59;;;;;;;19.33;18.13;;;22.50;1.00;;;;;;2611169;54;20678;-80
2023/05/05 11:38:35;;;;;;;18.70;17.60;;;22.00;1.00;;;;;;2616299;54;20395;-81
2023/05/05 11:44:34;;;;;;;18.83;17.53;;;22.20;1.00;;;;;;2615254;54;20487;-81
2023/05/05 11:50:23;;;;;;;18.03;17.10;;;21.50;1.00;;;;;;2612501;54;20535;-81
2023/05/05 12:02:28;;;;;;;19.80;18.70;;;21.20;1.00;;;;;;2615616;54;20407;-82
2023/05/05 12:08:39;;;;;;;18.53;17.07;;;21.10;1.00;;;;;;2613204;54;20419;-81
2023/05/05 12:14:26;;;;;;;17.53;16.30;;;20.10;24.00;;;;;;2614907;54;20551;-82
2023/05/05 12:23:38;;;;;;;13.20;12.10;;;18.00;99.90;;;;;;2611331;54;20419;-82
2023/05/05 12:32:47;;;;;;;9.70;9.10;;;17.00;99.90;;;;;;2616726;54;20407;-87
2023/05/05 12:38:35;;;;;;;7.07;6.57;;;16.50;99.90;;;;;;2616572;54;20194;-85
2023/05/05 12:44:23;;;;;;;7.53;6.93;;;16.30;99.90;;;;;;2617557;54;20153;-86
2023/05/05 12:50:11;;;;;;;8.23;7.27;;;16.40;99.90;;;;;;2618855;54;20231;-85
2023/05/05 12:55:59;;;;;;;9.73;7.33;;;16.40;99.90;;;;;;2618025;54;20118;-85
2023/05/05 13:01:50;;;;;;;8.67;8.07;;;17.40;99.90;;;;;;2618473;54;20158;-87
2023/05/05 13:07:51;;;;;;;10.17;9.67;;;17.60;99.90;;;;;;2618207;54;20476;-85
2023/05/05 13:13:39;;;;;;;9.70;9.30;;;18.10;99.90;;;;;;2616722;54;20456;-84
2023/05/05 13:19:27;;;;;;;9.20;8.70;;;18.30;99.90;;;;;;2614075;54;20134;-82
2023/05/05 13:25:14;;;;;;;7.80;7.40;;;18.50;99.90;;;;;;2612450;54;20772;-83
2023/05/05 13:35:11;;;;;;;8.00;7.60;;;18.30;99.90;;;;;;2613748;54;20548;-85
2023/05/05 13:40:59;;;;;;;8.30;7.90;;;18.80;99.90;;;;;;2612629;31;20969;-83
2023/05/05 13:46:47;;;;;;;9.33;8.63;;;18.40;99.90;;;;;;2609649;31;21084;-82
2023/05/05 13:52:35;;;;;;;8.43;7.73;;;18.60;99.90;;;;;;2613740;39;20580;-81
2023/05/05 13:58:24;;;;;;;7.30;6.80;;;19.70;99.90;;;;;;2608410;39;20535;-82
2023/05/05 14:04:11;;;;;;;9.30;8.60;;;19.70;99.90;;;;;;2613267;54;20463;-81
2023/05/05 14:09:59;;;;;;;7.87;7.37;;;20.00;99.90;;;;;;2610029;54;20134;-81
2023/05/05 14:15:49;;;;;;;10.60;8.77;;;19.30;99.90;;;;;;2612493;54;20157;-81
2023/05/05 14:21:37;;;;;;;9.60;8.70;;;19.40;99.90;;;;;;2612628;54;20492;-80
2023/05/05 14:27:25;;;;;;;9.20;8.60;;;19.00;99.90;;;;;;2611521;39;20531;-80
2023/05/05 14:33:13;;;;;;;10.33;9.27;;;18.80;99.90;;;;;;2615358;54;20644;-84
2023/05/05 14:36:31;;;;;;;10.30;9.33;;;19.20;99.90;;;;;;2614616;54;20941;-83
2023/05/05 14:42:19;;;;;;;9.90;9.10;;;19.20;99.90;;;;;;2616244;54;20435;-83
2023/05/05 14:48:07;;;;;;;8.70;8.00;;;18.90;99.90;;;;;;2612946;54;20854;-83
2023/05/05 14:53:55;;;;;;;10.03;9.30;;;18.50;99.90;;;;;;2612116;54;20137;-83
2023/05/05 14:59:44;;;;;;;10.80;9.90;;;17.20;99.90;;;;;;2613795;54;20158;-83
2023/05/05 15:05:32;;;;;;;7.87;6.57;;;15.40;99.90;;;;;;2614740;54;20415;-80
2023/05/05 15:11:20;;;;;;;8.27;7.03;;;14.40;99.90;;;;;;2613640;54;20146;-83
2023/05/05 15:17:08;;;;;;;15.70;14.10;;;14.30;99.90;;;;;;2614562;54;20403;-83
2023/05/05 15:22:56;;;;;;;7.63;5.47;;;14.10;99.90;;;;;;2615556;54;20154;-85
2023/05/05 15:28:44;;;;;;;5.67;5.17;;;14.10;99.90;;;;;;2615949;54;20399;-84
2023/05/05 15:34:45;;;;;;;8.67;7.77;;;14.10;99.90;;;;;;2618034;39;20627;-83
2023/05/05 15:40:32;;;;;;;7.00;6.30;;;14.00;99.90;;;;;;2615781;54;20987;-85
2023/05/05 15:46:20;;;;;;;7.50;6.80;;;14.20;99.90;;;;;;2614113;54;20147;-83
2023/05/05 15:52:07;;;;;;;7.27;6.57;;;14.40;99.90;;;;;;2615455;39;20657;-84
2023/05/05 15:57:54;;;;;;;7.43;4.67;;;14.30;99.90;;;;;;2616490;54;20160;-85
2023/05/05 16:03:42;;;;;;;6.87;6.23;;;14.00;99.90;;;;;;2617658;54;20798;-85
2023/05/05 16:09:29;;;;;;;13.90;6.60;;;14.00;99.90;;;;;;2616930;54;20135;-83
2023/05/05 16:15:17;;;;;;;6.40;4.87;;;14.10;99.90;;;;;;2619863;54;20150;-85
2023/05/05 16:21:05;;;;;;;5.93;5.43;;;14.00;99.90;;;;;;2618797;54;20153;-83
2023/05/05 16:26:53;;;;;;;5.90;5.40;;;14.00;99.90;;;;;;2621963;54;20652;-84
2023/05/05 16:36:31;;;;;;;12.27;7.60;;;14.30;99.90;;;;;;2616237;54;20431;-84
2023/05/05 16:42:19;;;;;;;7.80;7.20;;;14.70;99.90;;;;;;2618123;39;20799;-84
2023/05/05 16:48:07;;;;;;;8.73;7.60;;;15.80;99.90;;;;;;2623883;54;20122;-83
2023/05/05 16:53:55;;;;;;;7.40;7.00;;;15.80;99.90;;;;;;2612952;54;20151;-83
2023/05/05 16:59:43;;;;;;;8.60;8.00;;;15.70;99.90;;;;;;2614075;54;20151;-83
2023/05/05 17:05:31;;;;;;;9.10;8.20;;;15.50;99.90;;;;;;2612058;54;20134;-83
2023/05/05 17:08:34;;;;;;;8.00;7.40;;;15.30;99.90;;;;;;2613504;54;20415;-83
2023/05/05 17:11:00;;;;;;;7.00;6.50;;;15.20;99.90;;;;;;2613495;47;20681;-84
2023/05/05 17:16:47;;;;;;;7.40;6.90;;;15.00;99.90;;;;;;2614649;54;20162;-82
2023/05/05 17:22:36;;;;;;;12.67;8.40;;;14.60;99.90;;;;;;2616908;54;20123;-82
2023/05/05 17:28:24;;;;;;;8.10;7.63;;;14.60;99.90;;;;;;2619550;54;20399;-80
2023/05/05 17:37:34;;;;;;;9.47;8.83;;;14.20;99.90;;;;;;2616336;54;20419;-81
2023/05/05 17:43:22;;;;;;;8.27;7.67;;;14.00;99.90;;;;;;2616165;54;20423;-82
2023/05/05 17:49:10;;;;;;;7.50;7.00;;;14.20;99.90;;;;;;2616016;54;20131;-82
2023/05/05 17:54:58;;;;;;;6.60;6.10;;;14.10;99.90;;;;;;2615191;54;20158;-82
2023/05/05 18:00:45;;;;;;;6.97;6.33;;;14.00;99.90;;;;;;2611896;54;20241;-80
2023/05/05 18:06:33;;;;;;;7.03;6.30;;;14.00;99.90;;;;;;2615387;54;20725;-80
2023/05/05 18:12:21;;;;;;;6.73;6.20;;;14.00;99.90;;;;;;2615755;54;20213;-79
2023/05/05 18:18:09;;;;;;;7.07;6.37;;;13.90;99.90;;;;;;2615346;54;20146;-80
2023/05/05 18:23:57;;;;;;;8.33;7.53;;;13.80;99.90;;;;;;2615865;54;20162;-80
2023/05/05 18:29:48;;;;;;;8.27;7.47;;;13.60;99.90;;;;;;2617714;54;20620;-80
2023/05/05 18:35:46;;;;;;;8.27;7.33;;;13.60;99.90;;;;;;2615443;46;21023;-82
2023/05/05 18:41:34;;;;;;;10.70;7.70;;;13.50;99.90;;;;;;2614303;46;20191;-82
2023/05/05 18:47:22;;;;;;;10.40;6.97;;;13.60;99.90;;;;;;2613765;54;20395;-82
2023/05/05 18:56:34;;;;;;;8.50;6.70;;;13.50;99.90;;;;;;2613931;31;20857;-82
2023/05/05 19:02:21;;;;;;;7.50;6.80;;;13.50;99.90;;;;;;2612438;39;20747;-81
2023/05/05 19:08:09;;;;;;;8.17;7.37;;;13.30;99.90;;;;;;2614454;54;20122;-80
2023/05/05 19:13:56;;;;;;;14.97;8.37;;;13.30;99.90;;;;;;2616664;54;20427;-81
2023/05/05 19:19:43;;;;;;;9.83;8.90;;;13.00;99.90;;;;;;2615691;54;20129;-81
2023/05/05 19:25:32;;;;;;;11.30;10.10;;;12.90;99.90;;;;;;2615670;54;20660;-80
2023/05/05 19:31:26;;;;;;;11.80;9.80;;;12.80;99.90;;;;;;2614950;54;20500;-82
2023/05/05 19:37:14;;;;;;;11.37;9.27;;;12.60;99.90;;;;;;2614419;54;20419;-80
2023/05/05 19:43:02;;;;;;;10.80;9.70;;;12.30;99.90;;;;;;2615500;54;20130;-80
2023/05/05 19:48:49;;;;;;;15.00;11.63;;;12.20;99.90;;;;;;2615410;54;20226;-81
2023/05/05 19:54:37;;;;;;;16.10;13.20;;;12.10;99.90;;;;;;2614404;54;20170;-82
2023/05/05 20:00:25;;;;;;;15.77;13.20;;;12.20;99.90;;;;;;2617316;54;20133;-81
2023/05/05 20:06:13;;;;;;;14.93;12.93;;;12.00;99.90;;;;;;2616668;54;20147;-79
2023/05/05 20:12:01;;;;;;;14.57;13.03;;;11.80;99.90;;;;;;2615353;54;20138;-82
2023/05/05 20:17:49;;;;;;;15.50;13.90;;;11.50;99.90;;;;;;2617520;54;20123;-80
2023/05/05 20:23:36;;;;;;;21.10;18.57;;;11.70;99.90;;;;;;2616086;54;20146;-80
2023/05/05 20:29:24;;;;;;;28.77;22.97;;;11.50;99.90;;;;;;2615073;54;20211;-80
2023/05/05 20:35:12;;;;;;;29.43;20.70;;;11.50;99.90;;;;;;2613515;54;20221;-80
2023/05/05 20:41:00;;;;;;;27.80;22.90;;;11.40;99.90;;;;;;2617628;54;20194;-81
2023/05/05 20:46:48;;;;;;;28.03;24.97;;;11.20;99.90;;;;;;2617115;54;20134;-82
2023/05/05 20:52:37;;;;;;;24.87;22.20;;;11.00;99.90;;;;;;2615086;54;20126;-80
2023/05/05 20:58:25;;;;;;;23.23;19.50;;;10.90;99.90;;;;;;2614915;54;20543;-80
2023/05/05 21:04:12;;;;;;;28.23;20.70;;;10.90;99.90;;;;;;2615515;39;20382;-82
2023/05/05 21:10:04;;;;;;;32.13;22.43;;;10.90;99.90;;;;;;2615620;54;20270;-79
2023/05/05 21:15:51;;;;;;;31.40;21.87;;;10.80;99.90;;;;;;2616162;39;20482;-79
2023/05/05 21:21:39;;;;;;;28.73;21.10;;;11.00;99.90;;;;;;2614753;54;20150;-81
2023/05/05 21:27:27;;;;;;;29.83;20.50;;;11.00;99.90;;;;;;2615834;39;20513;-79
2023/05/05 21:39:59;;;;;;;24.27;19.10;;;10.90;99.90;;;;;;2617209;39;20752;-78
2023/05/05 21:45:47;;;;;;;25.30;18.13;;;10.70;99.90;;;;;;2614664;54;20126;-78
2023/05/05 21:51:34;;;;;;;23.33;17.40;;;10.70;99.90;;;;;;2613361;39;20663;-77
2023/05/05 21:57:22;;;;;;;23.53;17.93;;;10.60;99.90;;;;;;2612802;54;21099;-78
2023/05/05 22:03:10;;;;;;;26.60;19.73;;;10.60;99.90;;;;;;2613426;54;20564;-78
2023/05/05 22:08:59;;;;;;;24.70;18.73;;;10.70;99.90;;;;;;2611926;54;20387;-78
2023/05/05 22:14:47;;;;;;;27.10;19.07;;;10.50;99.90;;;;;;2614708;54;20420;-80
2023/05/05 22:20:37;;;;;;;30.97;22.33;;;10.60;99.90;;;;;;2614449;54;20243;-79
2023/05/05 22:26:25;;;;;;;32.37;24.37;;;10.50;99.90;;;;;;2615028;54;20419;-80
2023/05/05 22:32:13;;;;;;;30.27;22.27;;;10.70;99.90;;;;;;2615736;54;20170;-80
2023/05/05 22:38:02;;;;;;;35.77;23.20;;;10.50;99.90;;;;;;2613455;54;20237;-80
2023/05/05 22:47:29;;;;;;;31.00;22.13;;;10.50;99.90;;;;;;2614739;46;20415;-77
2023/05/05 22:53:17;;;;;;;33.10;24.83;;;10.50;99.90;;;;;;2612905;54;20384;-80
2023/05/05 22:59:04;;;;;;;39.10;28.50;;;10.50;99.90;;;;;;2612823;54;20154;-81
2023/05/05 23:04:51;;;;;;;36.37;25.53;;;10.40;99.90;;;;;;2613817;54;20151;-80
2023/05/05 23:10:39;;;;;;;36.40;26.27;;;10.40;99.90;;;;;;2613188;54;20195;-80
2023/05/05 23:16:26;;;;;;;45.33;28.70;;;10.60;99.90;;;;;;2612241;54;20849;-81
2023/05/05 23:22:14;;;;;;;47.87;27.10;;;10.50;99.90;;;;;;2614199;54;20282;-80
2023/05/05 23:28:02;;;;;;;45.40;26.30;;;10.40;99.90;;;;;;2614140;54;20122;-80
2023/05/05 23:33:50;;;;;;;47.43;26.30;;;10.30;99.90;;;;;;2614093;54;20133;-81
2023/05/05 23:36:54;;;;;;;44.13;25.30;;;10.30;99.90;;;;;;2611852;54;20423;-80
2023/05/05 23:39:20;;;;;;;41.00;27.27;;;10.30;99.90;;;;;;2614774;54;20161;-81
2023/05/05 23:45:08;;;;;;;43.43;25.40;;;10.20;99.90;;;;;;2613492;54;20430;-82
2023/05/05 23:50:56;;;;;;;40.63;25.27;;;10.20;99.90;;;;;;2614444;54;20395;-81
2023/05/05 23:56:46;;;;;;;43.17;27.40;;;10.20;99.90;;;;;;2615596;54;20166;-81
